Time;durP1;ratioP1;P1;durP2;ratioP2;P2;SDS_P1;SDS_P2;PMS_P1;PMS_P2;Temp;Humidity;BMP_temperature;BMP_pressure;BME280_temperature;BME280_humidity;BME280_pressure;Samples;Min_cycle;Max_cycle;Signal;HPM_P1;HPM_P2
2021/08/02 00:00:16;;;;;;;5.97;1.60;;;44.60;19.10;;;;;;5060774;28;20073;-66
2021/08/02 00:03:17;;;;;;;8.05;1.60;;;44.60;18.50;;;;;;5056476;28;20083;-66
2021/08/02 00:05:46;;;;;;;6.00;1.63;;;44.50;19.10;;;;;;5055138;28;20516;-66
2021/08/02 00:08:22;;;;;;;8.20;1.88;;;44.50;19.20;;;;;;5053025;28;20103;-66
2021/08/02 00:10:51;;;;;;;8.88;2.00;;;44.50;18.70;;;;;;5053655;28;20105;-66
2021/08/02 00:13:25;;;;;;;4.65;1.90;;;44.30;18.90;;;;;;5056379;28;20070;-67
2021/08/02 00:15:54;;;;;;;7.38;1.55;;;44.40;19.40;;;;;;5055808;28;20450;-67
2021/08/02 00:18:20;;;;;;;7.82;1.75;;;44.20;19.20;;;;;;5060503;28;20104;-66
2021/08/02 00:20:46;;;;;;;13.23;1.83;;;44.20;19.60;;;;;;5059395;28;20077;-66
2021/08/02 00:23:13;;;;;;;14.52;2.33;;;44.10;19.30;;;;;;5057892;28;20074;-66
2021/08/02 00:25:40;;;;;;;8.82;1.67;;;;;;;;;;5056985;28;20534;-65
2021/08/02 00:28:06;;;;;;;6.70;1.63;;;43.90;19.00;;;;;;5074197;28;20077;-67
2021/08/02 00:30:34;;;;;;;9.57;1.98;;;43.90;19.80;;;;;;5057423;28;20088;-66
2021/08/02 00:33:01;;;;;;;6.85;1.60;;;43.80;19.50;;;;;;5052354;28;20204;-66
2021/08/02 00:35:32;;;;;;;7.43;2.25;;;43.70;18.80;;;;;;5055541;28;20100;-66
2021/08/02 00:37:59;;;;;;;5.30;1.70;;;43.70;19.10;;;;;;5055153;28;20076;-66
2021/08/02 00:40:47;;;;;;;8.35;1.85;;;43.70;19.70;;;;;;5060140;28;20073;-68
2021/08/02 00:43:31;;;;;;;8.30;1.95;;;43.70;20.40;;;;;;5053473;28;20574;-66
2021/08/02 00:45:59;;;;;;;5.95;1.70;;;43.70;20.50;;;;;;5054988;28;20130;-66
2021/08/02 00:48:29;;;;;;;7.03;2.08;;;43.70;21.00;;;;;;5057720;28;20070;-67
2021/08/02 00:51:01;;;;;;;5.95;1.77;;;43.50;19.70;;;;;;5056145;28;20093;-66
2021/08/02 00:53:28;;;;;;;9.93;2.00;;;43.30;19.80;;;;;;5058581;28;20121;-66
2021/08/02 00:56:00;;;;;;;5.95;2.00;;;43.30;20.20;;;;;;5052004;28;20105;-66
2021/08/02 00:58:29;;;;;;;8.52;2.10;;;43.20;20.00;;;;;;5053626;28;20081;-66
2021/08/02 01:00:57;;;;;;;9.15;1.90;;;43.20;20.20;;;;;;5059732;28;20483;-66
2021/08/02 01:03:24;;;;;;;11.27;1.90;;;43.10;20.90;;;;;;5055099;28;20206;-66
2021/08/02 01:05:52;;;;;;;5.93;2.10;;;43.10;20.50;;;;;;5055834;28;20137;-66
2021/08/02 01:08:24;;;;;;;9.90;1.95;;;43.00;20.70;;;;;;5059278;28;20101;-66
2021/08/02 01:10:59;;;;;;;7.30;1.70;;;43.00;20.50;;;;;;5053793;28;20442;-66
2021/08/02 01:13:28;;;;;;;7.97;1.80;;;42.90;20.30;;;;;;5054066;28;20065;-66
2021/08/02 01:15:58;;;;;;;8.93;1.75;;;42.90;20.20;;;;;;5053790;28;20104;-66
2021/08/02 01:18:26;;;;;;;8.32;2.08;;;;;;;;;;5055921;28;20102;-67
2021/08/02 01:20:54;;;;;;;7.57;1.95;;;42.70;20.50;;;;;;5052481;28;20149;-66
2021/08/02 01:23:22;;;;;;;5.57;1.90;;;42.50;20.50;;;;;;5054586;28;20081;-66
2021/08/02 01:25:48;;;;;;;7.85;1.80;;;42.30;20.50;;;;;;5055792;28;20142;-67
2021/08/02 01:28:15;;;;;;;7.03;1.80;;;42.30;20.80;;;;;;5055340;28;20586;-66
2021/08/02 01:30:51;;;;;;;3.28;1.60;;;42.30;20.70;;;;;;5056403;28;20101;-66
2021/08/02 01:33:21;;;;;;;8.25;1.70;;;42.20;20.70;;;;;;5053261;28;20127;-66
2021/08/02 01:35:47;;;;;;;7.03;2.08;;;42.10;21.30;;;;;;5053831;28;20104;-66
2021/08/02 01:38:15;;;;;;;5.72;1.90;;;42.10;21.80;;;;;;5052390;28;20174;-66
2021/08/02 01:40:41;;;;;;;10.02;2.00;;;42.10;21.40;;;;;;5056340;28;20065;-66
2021/08/02 01:43:08;;;;;;;12.52;2.67;;;42.20;21.90;;;;;;5056391;28;20539;-66
2021/08/02 01:45:54;;;;;;;7.60;2.20;;;42.10;21.70;;;;;;5058771;28;20077;-66
2021/08/02 01:48:34;;;;;;;10.27;2.47;;;42.10;21.50;;;;;;5056554;28;20436;-66
2021/08/02 01:51:03;;;;;;;11.98;2.35;;;42.00;21.90;;;;;;5057276;28;20073;-66
2021/08/02 01:53:41;;;;;;;8.50;2.00;;;41.90;21.50;;;;;;5059438;28;20638;-67
2021/08/02 01:56:22;;;;;;;8.85;3.40;;;41.90;21.80;;;;;;5058370;28;20131;-68
2021/08/02 01:59:09;;;;;;;9.32;2.90;;;41.90;21.40;;;;;;5054766;28;20468;-69
2021/08/02 02:01:56;;;;;;;7.93;2.95;;;41.90;21.50;;;;;;5059803;28;20552;-67
2021/08/02 02:04:37;;;;;;;7.13;2.20;;;41.90;21.70;;;;;;5056091;28;20097;-67
2021/08/02 02:07:05;;;;;;;6.75;1.98;;;41.90;21.00;;;;;;5056465;28;20478;-67
2021/08/02 02:09:36;;;;;;;6.95;1.88;;;41.70;21.60;;;;;;5056211;28;20073;-67
2021/08/02 02:12:05;;;;;;;13.32;1.98;;;41.60;21.20;;;;;;5055964;28;20161;-68
2021/08/02 02:14:36;;;;;;;9.35;1.95;;;41.50;21.30;;;;;;5059799;28;20566;-68
2021/08/02 02:17:04;;;;;;;4.65;2.00;;;41.40;21.40;;;;;;5054197;28;20104;-68
2021/08/02 02:19:33;;;;;;;8.90;2.20;;;41.40;21.50;;;;;;5055732;28;20083;-69
2021/08/02 02:22:01;;;;;;;15.18;2.05;;;41.30;21.40;;;;;;5059425;28;20426;-67
2021/08/02 02:24:28;;;;;;;17.58;2.70;;;41.20;21.60;;;;;;5054459;28;20109;-67
2021/08/02 02:26:56;;;;;;;9.07;2.22;;;41.10;21.60;;;;;;5053017;28;20428;-67
2021/08/02 02:29:23;;;;;;;11.80;2.25;;;41.00;21.60;;;;;;5055534;28;20123;-68
2021/08/02 02:31:51;;;;;;;11.23;2.35;;;40.90;21.90;;;;;;5055987;28;20541;-68
2021/08/02 02:34:18;;;;;;;7.45;2.38;;;40.80;21.90;;;;;;5052893;28;20108;-66
2021/08/02 02:36:46;;;;;;;9.70;2.72;;;40.80;21.90;;;;;;5056029;28;20081;-66
2021/08/02 02:39:14;;;;;;;8.20;2.65;;;40.70;22.10;;;;;;5061958;28;20073;-66
2021/08/02 02:41:42;;;;;;;12.13;2.63;;;40.60;22.40;;;;;;5077862;28;20078;-67
2021/08/02 02:44:08;;;;;;;11.00;2.17;;;40.60;22.20;;;;;;5067959;28;20084;-67
2021/08/02 02:46:35;;;;;;;13.90;2.60;;;40.50;22.40;;;;;;5064545;28;20435;-67
2021/08/02 02:49:05;;;;;;;19.15;2.45;;;40.50;22.30;;;;;;5061530;28;20123;-67
2021/08/02 02:51:32;;;;;;;25.02;3.10;;;40.40;22.30;;;;;;5056682;28;20088;-67
2021/08/02 02:54:02;;;;;;;27.20;3.75;;;40.40;22.50;;;;;;5058117;28;20119;-66
2021/08/02 02:56:31;;;;;;;21.52;4.68;;;40.30;24.20;;;;;;5056688;28;20081;-68
2021/08/02 02:58:57;;;;;;;14.65;4.57;;;40.20;26.60;;;;;;5058218;28;20438;-66
2021/08/02 03:01:29;;;;;;;13.52;4.45;;;40.20;27.70;;;;;;5056816;28;20073;-67
2021/08/02 03:04:00;;;;;;;15.30;5.03;;;40.10;28.50;;;;;;5057868;28;20076;-69
2021/08/02 03:06:28;;;;;;;21.08;4.60;;;40.00;28.80;;;;;;5056767;28;20077;-63
2021/08/02 03:08:57;;;;;;;19.30;5.07;;;40.60;28.60;;;;;;5052266;28;20133;-63
2021/08/02 03:11:25;;;;;;;20.95;5.43;;;40.60;28.50;;;;;;5052273;28;20086;-63
2021/08/02 03:13:53;;;;;;;18.42;5.60;;;40.60;28.80;;;;;;5052992;28;20085;-64
2021/08/02 03:16:22;;;;;;;15.43;5.10;;;40.50;28.90;;;;;;5058877;28;20098;-64
2021/08/02 03:18:49;;;;;;;19.65;5.10;;;40.50;29.00;;;;;;5056741;28;20101;-64
2021/08/02 03:21:17;;;;;;;13.38;4.65;;;40.40;29.20;;;;;;5058972;28;20097;-64
2021/08/02 03:24:05;;;;;;;10.90;4.75;;;40.40;29.20;;;;;;5057131;28;20082;-65
2021/08/02 03:26:38;;;;;;;17.38;3.00;;;40.40;29.00;;;;;;5057285;28;20114;-63
2021/08/02 03:29:17;;;;;;;16.33;2.83;;;40.20;29.40;;;;;;5059053;28;20101;-63
2021/08/02 03:31:50;;;;;;;13.80;3.67;;;40.20;29.70;;;;;;5062501;28;20148;-63
2021/08/02 03:34:23;;;;;;;20.92;3.92;;;40.20;29.50;;;;;;5058467;28;20128;-64
2021/08/02 03:36:51;;;;;;;23.02;3.65;;;40.40;29.50;;;;;;5060360;28;20108;-64
2021/08/02 03:39:21;;;;;;;21.02;3.60;;;40.30;29.10;;;;;;5057301;28;20541;-63
2021/08/02 03:41:50;;;;;;;16.00;3.67;;;40.30;29.30;;;;;;5060909;28;20185;-63
2021/08/02 03:44:17;;;;;;;13.45;3.08;;;40.30;29.30;;;;;;5057114;28;20084;-64
2021/08/02 03:46:44;;;;;;;15.80;2.92;;;40.20;29.40;;;;;;5059612;28;20519;-63
2021/08/02 03:49:11;;;;;;;18.75;3.22;;;40.10;26.50;;;;;;5060740;28;20078;-64
2021/08/02 03:52:07;;;;;;;11.82;2.33;;;40.20;22.90;;;;;;5059577;28;20084;-63
2021/08/02 03:54:34;;;;;;;6.50;2.78;;;40.20;19.50;;;;;;5059088;28;20538;-64
2021/08/02 03:57:02;;;;;;;14.70;4.50;;;40.30;18.40;;;;;;5057783;28;20074;-64
2021/08/02 03:59:33;;;;;;;8.70;3.78;;;40.30;19.20;;;;;;5060841;28;20081;-64
2021/08/02 04:02:00;;;;;;;15.57;4.20;;;40.30;18.30;;;;;;5059477;28;20080;-64
2021/08/02 04:04:27;;;;;;;13.70;3.67;;;40.10;20.60;;;;;;5057323;28;20632;-63
2021/08/02 04:06:54;;;;;;;13.95;3.08;;;40.10;21.80;;;;;;5056084;28;20181;-63
2021/08/02 04:09:20;;;;;;;15.20;2.80;;;40.10;21.20;;;;;;5065184;28;20488;-65
2021/08/02 04:11:49;;;;;;;6.18;2.45;;;40.10;21.20;;;;;;5057584;28;20069;-64
2021/08/02 04:14:15;;;;;;;13.93;2.47;;;40.00;21.10;;;;;;5058639;28;20513;-65
2021/08/02 04:16:42;;;;;;;6.47;1.90;;;39.80;20.80;;;;;;5053662;28;20419;-64
2021/08/02 04:19:08;;;;;;;13.07;1.73;;;39.70;18.60;;;;;;5057655;28;20084;-64
2021/08/02 04:21:35;;;;;;;9.23;2.20;;;39.80;16.90;;;;;;5052723;28;20583;-65
2021/08/02 04:24:02;;;;;;;5.25;1.90;;;39.80;16.20;;;;;;5073393;28;20081;-63
2021/08/02 04:26:29;;;;;;;8.52;2.10;;;39.70;16.10;;;;;;5059238;28;20530;-64
2021/08/02 04:28:56;;;;;;;8.10;2.17;;;39.60;17.00;;;;;;5056308;28;20094;-63
2021/08/02 04:31:25;;;;;;;8.50;2.03;;;39.50;18.20;;;;;;5058046;28;20073;-63
2021/08/02 04:33:53;;;;;;;9.10;2.17;;;39.40;18.80;;;;;;5057691;28;20420;-64
2021/08/02 04:36:19;;;;;;;5.15;1.95;;;39.30;19.60;;;;;;5055865;28;20172;-64
2021/08/02 04:38:46;;;;;;;10.32;2.40;;;39.20;19.40;;;;;;5054487;28;20085;-63
2021/08/02 04:41:13;;;;;;;9.13;2.05;;;39.20;19.00;;;;;;5057555;28;20164;-65
2021/08/02 04:43:40;;;;;;;9.20;2.35;;;39.00;18.40;;;;;;5054775;28;20163;-63
2021/08/02 04:46:06;;;;;;;12.60;2.00;;;38.90;18.40;;;;;;5055675;28;20096;-64
2021/08/02 04:48:33;;;;;;;13.77;2.40;;;38.80;16.30;;;;;;5056951;28;20086;-64
2021/08/02 04:50:59;;;;;;;13.15;1.92;;;38.80;17.00;;;;;;5058420;28;20164;-63
2021/08/02 04:53:26;;;;;;;18.73;2.55;;;38.80;16.90;;;;;;5059007;28;20121;-63
2021/08/02 04:55:52;;;;;;;17.83;2.67;;;38.70;16.80;;;;;;5058197;28;20566;-63
2021/08/02 04:58:19;;;;;;;15.60;2.83;;;38.80;16.90;;;;;;5056504;28;20074;-63
2021/08/02 05:00:46;;;;;;;20.15;2.80;;;38.70;17.20;;;;;;5059967;28;20088;-64
2021/08/02 05:03:13;;;;;;;19.70;2.83;;;38.60;16.10;;;;;;5057895;28;20076;-65
2021/08/02 05:05:39;;;;;;;19.95;3.10;;;38.50;16.40;;;;;;5072965;28;20105;-64
2021/08/02 05:08:06;;;;;;;21.42;3.13;;;38.40;16.60;;;;;;5063500;28;20062;-65
2021/08/02 05:10:32;;;;;;;26.67;2.88;;;38.40;16.40;;;;;;5055280;28;20151;-66
2021/08/02 05:13:00;;;;;;;22.25;2.90;;;38.30;16.20;;;;;;5059202;28;20062;-65
2021/08/02 05:15:28;;;;;;;11.52;2.28;;;38.40;16.40;;;;;;5059005;28;20529;-65
2021/08/02 05:18:00;;;;;;;21.55;2.47;;;38.40;16.50;;;;;;5054515;28;20081;-65
2021/08/02 05:20:27;;;;;;;23.83;2.88;;;38.30;16.60;;;;;;5060718;28;20073;-66
2021/08/02 05:22:54;;;;;;;15.30;2.10;;;38.30;17.50;;;;;;5073489;28;20106;-64
2021/08/02 05:25:20;;;;;;;16.13;2.53;;;38.20;17.40;;;;;;5040859;28;20169;-68
2021/08/02 05:27:48;;;;;;;14.48;2.53;;;38.20;17.40;;;;;;5063094;28;20065;-66
2021/08/02 05:30:15;;;;;;;17.13;2.67;;;38.10;16.70;;;;;;5076631;28;20092;-65
2021/08/02 05:32:42;;;;;;;27.60;2.83;;;38.00;17.00;;;;;;5058686;28;20077;-63
2021/08/02 05:35:10;;;;;;;21.02;3.40;;;38.00;17.30;;;;;;5071678;28;20506;-67
2021/08/02 05:37:36;;;;;;;27.90;3.42;;;38.00;17.40;;;;;;5056303;28;20076;-66
2021/08/02 05:40:05;;;;;;;19.42;2.88;;;38.00;17.00;;;;;;5060172;28;20073;-66
2021/08/02 05:42:31;;;;;;;19.70;2.70;;;37.90;16.60;;;;;;5064586;22;20172;-66
2021/08/02 05:44:58;;;;;;;17.80;3.10;;;37.90;16.70;;;;;;5075633;28;20070;-66
2021/08/02 05:47:26;;;;;;;24.52;2.88;;;37.90;17.40;;;;;;5077576;28;20138;-65
2021/08/02 05:49:52;;;;;;;15.38;3.00;;;37.90;17.10;;;;;;5078166;28;20069;-65
2021/08/02 05:52:19;;;;;;;17.80;3.17;;;37.90;18.40;;;;;;5077980;28;20073;-66
2021/08/02 05:54:45;;;;;;;20.75;3.08;;;37.80;18.10;;;;;;5084156;28;20097;-66
2021/08/02 05:57:12;;;;;;;20.30;3.25;;;37.70;18.30;;;;;;5075617;28;20083;-64
2021/08/02 05:59:38;;;;;;;17.50;3.20;;;37.60;18.10;;;;;;5077632;28;20181;-66
2021/08/02 06:02:05;;;;;;;30.45;3.38;;;37.50;18.30;;;;;;5074824;28;20084;-65
2021/08/02 06:04:31;;;;;;;22.08;3.50;;;37.40;18.10;;;;;;5071627;28;20073;-64
2021/08/02 06:06:58;;;;;;;19.13;3.63;;;37.40;18.40;;;;;;5076271;28;20069;-65
2021/08/02 06:09:24;;;;;;;15.27;3.75;;;37.30;18.70;;;;;;5079720;28;20130;-65
2021/08/02 06:11:51;;;;;;;20.63;3.80;;;37.30;18.70;;;;;;5075397;28;20077;-65
2021/08/02 06:14:18;;;;;;;27.67;4.45;;;37.20;18.80;;;;;;5080806;28;20103;-67
2021/08/02 06:16:45;;;;;;;30.40;5.32;;;37.10;19.00;;;;;;5078182;28;20103;-65
2021/08/02 06:19:11;;;;;;;12.45;3.33;;;37.00;18.80;;;;;;5075411;28;20080;-65
2021/08/02 06:21:38;;;;;;;18.38;3.80;;;36.90;18.90;;;;;;5079100;28;21710;-65
2021/08/02 06:24:04;;;;;;;14.07;3.88;;;36.90;19.30;;;;;;5075423;28;20076;-66
2021/08/02 06:26:31;;;;;;;23.05;4.07;;;36.80;18.90;;;;;;5075694;28;20077;-66
2021/08/02 06:28:58;;;;;;;19.88;3.50;;;36.80;19.30;;;;;;5076693;28;20080;-66
2021/08/02 06:31:25;;;;;;;25.25;4.07;;;36.70;19.80;;;;;;5077424;28;20160;-66
2021/08/02 06:33:51;;;;;;;17.58;3.33;;;36.60;19.10;;;;;;5078618;28;20077;-66
2021/08/02 06:36:20;;;;;;;10.50;2.90;;;36.50;19.70;;;;;;5075888;28;20105;-66
2021/08/02 06:38:48;;;;;;;12.55;2.92;;;36.50;19.70;;;;;;5076544;28;20091;-65
2021/08/02 06:41:15;;;;;;;22.95;3.17;;;36.40;19.80;;;;;;5072443;28;20097;-65
2021/08/02 06:43:43;;;;;;;14.90;2.80;;;36.30;19.80;;;;;;5074395;28;20615;-64
2021/08/02 06:46:09;;;;;;;16.15;3.15;;;36.30;20.10;;;;;;5078523;28;20168;-66
2021/08/02 06:48:40;;;;;;;20.00;3.13;;;36.20;21.00;;;;;;5092595;28;20077;-65
2021/08/02 06:51:10;;;;;;;17.45;3.15;;;36.20;20.70;;;;;;5091355;28;20111;-65
2021/08/02 06:53:38;;;;;;;20.20;3.05;;;36.10;20.10;;;;;;5084999;28;20096;-65
2021/08/02 06:56:06;;;;;;;22.02;3.00;;;36.00;20.40;;;;;;5082409;28;20089;-64
2021/08/02 06:58:33;;;;;;;21.00;3.55;;;35.90;20.30;;;;;;5079584;28;20148;-65
2021/08/02 07:00:59;;;;;;;24.02;4.05;;;35.90;20.50;;;;;;5078360;28;21663;-65
2021/08/02 07:03:26;;;;;;;17.80;3.95;;;35.90;20.60;;;;;;5077332;28;20079;-64
2021/08/02 07:05:52;;;;;;;17.60;3.60;;;35.90;20.50;;;;;;5079658;28;20099;-65
2021/08/02 07:08:19;;;;;;;29.98;4.63;;;35.80;21.40;;;;;;5079030;28;20183;-65
2021/08/02 07:10:46;;;;;;;27.58;4.88;;;35.70;24.10;;;;;;5075023;28;20077;-65
2021/08/02 07:13:13;;;;;;;37.92;5.45;;;35.70;26.50;;;;;;5078874;28;20069;-65
2021/08/02 07:15:39;;;;;;;29.38;4.70;;;35.50;26.70;;;;;;5078472;28;20092;-64
2021/08/02 07:18:06;;;;;;;38.60;5.10;;;35.50;27.00;;;;;;5078745;28;20073;-65
2021/08/02 07:20:32;;;;;;;22.65;5.30;;;35.50;27.60;;;;;;5080685;28;20079;-64
2021/08/02 07:22:59;;;;;;;27.75;4.90;;;35.50;27.70;;;;;;5074113;28;20080;-65
2021/08/02 07:25:25;;;;;;;44.92;6.78;;;35.40;28.70;;;;;;5074728;28;20127;-64
2021/08/02 07:27:52;;;;;;;38.35;6.82;;;35.50;29.70;;;;;;5072454;28;20065;-65
2021/08/02 07:30:18;;;;;;;32.33;6.25;;;35.40;30.70;;;;;;5075059;28;20077;-64
2021/08/02 07:32:45;;;;;;;28.75;5.55;;;35.40;30.30;;;;;;5080076;28;20433;-65
2021/08/02 07:35:12;;;;;;;41.42;6.97;;;35.20;29.70;;;;;;5078252;28;20433;-65
2021/08/02 07:37:42;;;;;;;26.27;5.70;;;35.10;29.20;;;;;;5077406;28;20203;-64
2021/08/02 07:40:10;;;;;;;18.98;4.95;;;35.10;28.40;;;;;;5077633;28;20088;-65
2021/08/02 07:42:37;;;;;;;15.38;3.80;;;35.10;27.60;;;;;;5077985;28;20112;-65
2021/08/02 07:45:04;;;;;;;18.25;3.53;;;34.90;26.90;;;;;;5075582;28;20100;-65
2021/08/02 07:47:31;;;;;;;20.65;3.42;;;34.80;26.70;;;;;;5075750;28;20073;-65
2021/08/02 07:49:59;;;;;;;9.70;2.75;;;34.80;26.40;;;;;;5071841;28;20434;-64
2021/08/02 07:52:25;;;;;;;14.93;2.53;;;34.70;25.70;;;;;;5074764;28;20593;-64
2021/08/02 07:54:52;;;;;;;11.10;2.75;;;34.80;25.50;;;;;;5076032;28;20140;-66
2021/08/02 07:57:18;;;;;;;9.82;2.53;;;34.80;25.10;;;;;;5073403;28;20077;-64
2021/08/02 07:59:45;;;;;;;13.82;2.63;;;34.70;24.90;;;;;;5077830;28;20530;-65
2021/08/02 08:02:11;;;;;;;13.65;2.30;;;34.70;24.80;;;;;;5077642;28;20446;-64
2021/08/02 08:04:38;;;;;;;14.10;2.15;;;34.70;24.50;;;;;;5075657;28;20073;-64
2021/08/02 08:07:04;;;;;;;5.40;1.80;;;34.70;25.30;;;;;;5077970;28;20652;-65
2021/08/02 08:09:31;;;;;;;14.52;2.42;;;34.70;26.20;;;;;;5076130;28;20109;-63
2021/08/02 08:11:57;;;;;;;8.57;2.33;;;34.50;24.60;;;;;;5079088;28;20077;-65
2021/08/02 08:14:24;;;;;;;11.30;2.30;;;34.50;25.40;;;;;;5079123;28;20100;-66
2021/08/02 08:16:50;;;;;;;9.88;2.60;;;34.50;25.70;;;;;;5072774;28;20085;-64
2021/08/02 08:19:17;;;;;;;11.18;2.63;;;34.50;25.70;;;;;;5076625;28;20158;-65
2021/08/02 08:21:43;;;;;;;14.32;2.28;;;34.50;25.70;;;;;;5074794;28;20234;-65
2021/08/02 08:24:10;;;;;;;8.15;2.55;;;34.60;26.00;;;;;;5072964;28;20080;-64
2021/08/02 08:26:36;;;;;;;11.43;2.50;;;34.50;25.50;;;;;;5076416;28;20084;-66
2021/08/02 08:29:06;;;;;;;6.35;1.80;;;34.50;25.20;;;;;;5075161;28;20526;-65
2021/08/02 08:31:33;;;;;;;11.02;2.40;;;34.40;23.30;;;;;;5074108;28;20154;-64
2021/08/02 08:34:00;;;;;;;5.70;2.35;;;34.40;23.00;;;;;;5073581;28;20108;-65
2021/08/02 08:36:26;;;;;;;6.57;1.60;;;34.40;23.30;;;;;;5077031;28;20109;-65
2021/08/02 08:38:53;;;;;;;11.85;2.40;;;34.50;23.40;;;;;;5075708;28;20069;-65
2021/08/02 08:41:21;;;;;;;6.57;2.22;;;34.40;22.20;;;;;;5075045;28;20159;-64
2021/08/02 08:43:51;;;;;;;9.00;2.58;;;34.40;22.10;;;;;;5070965;28;20116;-64
2021/08/02 08:46:25;;;;;;;8.20;2.50;;;34.40;22.50;;;;;;5071844;28;20211;-64
2021/08/02 08:48:52;;;;;;;6.68;2.30;;;34.40;22.00;;;;;;5073327;28;20088;-64
2021/08/02 08:51:19;;;;;;;9.18;2.17;;;34.40;22.30;;;;;;5071042;28;20086;-64
2021/08/02 08:53:46;;;;;;;9.02;1.80;;;34.40;22.60;;;;;;5075452;28;20094;-65
2021/08/02 08:56:16;;;;;;;5.43;1.80;;;34.40;22.50;;;;;;5075460;28;20150;-65
2021/08/02 08:58:43;;;;;;;6.00;1.73;;;34.40;22.70;;;;;;5077683;28;20088;-64
2021/08/02 09:01:11;;;;;;;10.20;2.13;;;34.40;22.90;;;;;;5075411;28;20205;-64
2021/08/02 09:03:37;;;;;;;7.68;2.28;;;34.30;23.30;;;;;;5072084;28;20103;-64
2021/08/02 09:06:06;;;;;;;7.47;2.15;;;34.20;23.50;;;;;;5070548;28;20114;-65
2021/08/02 09:08:43;;;;;;;4.75;1.90;;;34.20;23.70;;;;;;5071140;28;20138;-65
2021/08/02 09:11:18;;;;;;;4.72;1.70;;;34.10;23.30;;;;;;5075040;28;20429;-64
2021/08/02 09:13:44;;;;;;;14.80;2.30;;;34.10;22.90;;;;;;5075966;28;20076;-64
2021/08/02 09:16:16;;;;;;;5.85;1.80;;;34.10;22.90;;;;;;5071379;28;20095;-64
2021/08/02 09:18:58;;;;;;;4.40;1.52;;;34.00;23.00;;;;;;5072276;28;20087;-64
2021/08/02 09:21:26;;;;;;;6.68;2.20;;;34.00;23.80;;;;;;5073020;28;20073;-65
2021/08/02 09:23:54;;;;;;;8.52;1.90;;;33.90;22.70;;;;;;5072208;28;20078;-65
2021/08/02 09:26:31;;;;;;;6.63;1.48;;;33.90;22.50;;;;;;5072840;28;20529;-65
2021/08/02 09:28:58;;;;;;;7.90;1.40;;;33.90;22.50;;;;;;5072472;28;20073;-65
2021/08/02 09:31:36;;;;;;;6.32;1.95;;;33.80;22.30;;;;;;5077259;28;20084;-65
2021/08/02 09:34:07;;;;;;;6.25;1.90;;;33.80;22.60;;;;;;5076386;28;20069;-65
2021/08/02 09:36:54;;;;;;;8.98;1.70;;;33.70;23.50;;;;;;5072825;28;20090;-65
2021/08/02 09:39:20;;;;;;;12.25;2.33;;;33.60;23.90;;;;;;5076171;28;20442;-63
2021/08/02 09:41:47;;;;;;;6.57;2.38;;;33.50;24.60;;;;;;5075851;28;20083;-64
2021/08/02 09:44:25;;;;;;;7.80;1.92;;;33.40;25.00;;;;;;5073086;28;20319;-64
2021/08/02 09:46:56;;;;;;;4.32;1.70;;;33.30;24.90;;;;;;5068590;28;20518;-65
2021/08/02 09:49:23;;;;;;;5.70;1.83;;;33.30;25.40;;;;;;5072260;28;20077;-64
2021/08/02 09:51:50;;;;;;;8.20;1.80;;;33.30;24.70;;;;;;5073341;28;20592;-65
2021/08/02 09:54:28;;;;;;;6.88;2.10;;;33.20;24.50;;;;;;5072015;28;21279;-65
2021/08/02 09:56:55;;;;;;;10.55;1.75;;;33.10;25.40;;;;;;5070206;28;20081;-64
2021/08/02 09:59:22;;;;;;;9.98;2.20;;;33.00;25.10;;;;;;5075357;28;20077;-65
2021/08/02 10:01:52;;;;;;;8.15;2.35;;;33.10;24.90;;;;;;5074951;28;20085;-64
2021/08/02 10:04:19;;;;;;;12.77;2.20;;;33.00;25.20;;;;;;5070996;28;20121;-65
2021/08/02 10:06:45;;;;;;;7.60;2.35;;;33.00;24.90;;;;;;5074734;28;20560;-65
2021/08/02 10:09:13;;;;;;;12.48;2.35;;;33.10;25.40;;;;;;5071822;28;20081;-65
2021/08/02 10:11:42;;;;;;;7.68;2.42;;;33.00;25.30;;;;;;5072622;28;20535;-65
2021/08/02 10:14:13;;;;;;;10.07;2.15;;;32.80;25.70;;;;;;5070781;28;20169;-64
2021/08/02 10:16:44;;;;;;;8.23;2.38;;;32.80;25.70;;;;;;5076910;28;20073;-65
2021/08/02 10:19:12;;;;;;;9.38;2.65;;;32.80;26.00;;;;;;5069773;28;20123;-64
2021/08/02 10:21:44;;;;;;;7.75;2.65;;;32.80;25.90;;;;;;5075642;28;20588;-65
2021/08/02 10:24:15;;;;;;;4.97;2.45;;;32.80;26.20;;;;;;5072961;28;20073;-64
2021/08/02 10:26:58;;;;;;;9.07;2.78;;;32.80;26.30;;;;;;5074343;28;20129;-64
2021/08/02 10:29:36;;;;;;;10.77;2.25;;;32.80;26.10;;;;;;5075315;28;20065;-65
2021/08/02 10:32:03;;;;;;;14.95;3.20;;;32.80;26.30;;;;;;5074323;28;20108;-64
2021/08/02 10:34:29;;;;;;;11.98;2.72;;;32.70;25.90;;;;;;5077699;28;20093;-65
2021/08/02 10:37:01;;;;;;;15.90;2.80;;;32.70;26.20;;;;;;5082395;28;20072;-65
2021/08/02 10:39:29;;;;;;;12.57;2.67;;;32.60;26.20;;;;;;5075611;28;20152;-65
2021/08/02 10:42:09;;;;;;;8.18;3.00;;;32.60;26.30;;;;;;5079742;28;20118;-65
2021/08/02 10:44:35;;;;;;;11.07;2.95;;;32.50;26.70;;;;;;5076783;28;20128;-64
2021/08/02 10:47:12;;;;;;;14.40;2.78;;;32.50;27.00;;;;;;5077126;28;20077;-64
2021/08/02 10:49:52;;;;;;;15.98;3.15;;;32.40;27.10;;;;;;5078552;28;20075;-64
2021/08/02 10:52:31;;;;;;;14.45;3.03;;;32.40;27.30;;;;;;5077566;28;20080;-64
2021/08/02 10:54:58;;;;;;;22.63;3.97;;;32.30;28.30;;;;;;5078809;28;20100;-64
2021/08/02 10:57:25;;;;;;;8.85;3.08;;;32.30;28.20;;;;;;5073145;28;20068;-64
2021/08/02 10:59:52;;;;;;;11.73;3.03;;;32.30;28.90;;;;;;5076239;28;20107;-63
2021/08/02 11:02:20;;;;;;;11.02;2.92;;;32.20;28.40;;;;;;5079564;28;20081;-64
2021/08/02 11:04:54;;;;;;;11.90;3.10;;;32.20;28.20;;;;;;5073735;28;20072;-63
2021/08/02 11:07:21;;;;;;;9.07;3.08;;;32.10;28.50;;;;;;5076827;28;20081;-63
2021/08/02 11:09:48;;;;;;;21.90;3.15;;;32.10;28.60;;;;;;5076724;28;20100;-64
2021/08/02 11:12:15;;;;;;;11.40;3.13;;;32.00;28.60;;;;;;5076913;28;20109;-64
2021/08/02 11:14:59;;;;;;;12.95;2.97;;;32.00;28.90;;;;;;5079267;28;20089;-64
2021/08/02 11:17:29;;;;;;;9.57;2.92;;;32.00;29.40;;;;;;5078806;28;20191;-64
2021/08/02 11:20:09;;;;;;;13.90;3.70;;;32.00;29.10;;;;;;5079365;28;20173;-64
2021/08/02 11:22:48;;;;;;;9.25;3.88;;;32.00;28.30;;;;;;5076326;28;20084;-63
2021/08/02 11:25:21;;;;;;;9.63;2.65;;;31.90;28.00;;;;;;5071206;28;20125;-63
2021/08/02 11:27:53;;;;;;;5.40;2.40;;;31.80;26.90;;;;;;5078077;28;20073;-64
2021/08/02 11:30:20;;;;;;;13.00;2.65;;;31.80;26.90;;;;;;5091909;28;20580;-64
2021/08/02 11:32:47;;;;;;;5.03;1.98;;;31.80;26.90;;;;;;5081943;28;20077;-64
2021/08/02 11:35:13;;;;;;;13.73;3.00;;;31.70;27.30;;;;;;5080445;28;20117;-63
2021/08/02 11:37:42;;;;;;;9.52;2.63;;;31.60;27.40;;;;;;5080877;28;20073;-65
2021/08/02 11:40:09;;;;;;;7.00;1.95;;;31.60;27.50;;;;;;5079562;28;20081;-64
2021/08/02 11:42:37;;;;;;;7.78;2.40;;;31.60;27.10;;;;;;5079832;28;20099;-63
2021/08/02 11:45:06;;;;;;;7.43;2.25;;;31.60;27.70;;;;;;5076505;28;20546;-64
2021/08/02 11:47:40;;;;;;;10.95;2.40;;;31.50;27.20;;;;;;5073931;28;20130;-64
2021/08/02 11:50:07;;;;;;;9.05;2.28;;;31.40;27.80;;;;;;5076127;28;20494;-65
2021/08/02 11:52:34;;;;;;;7.00;2.03;;;31.40;27.50;;;;;;5077073;28;20152;-64
2021/08/02 11:55:05;;;;;;;4.93;2.00;;;31.40;27.10;;;;;;5073137;28;20097;-63
2021/08/02 11:57:32;;;;;;;6.10;2.30;;;31.40;27.20;;;;;;5077287;28;20080;-63
2021/08/02 12:00:01;;;;;;;11.80;2.42;;;31.40;27.30;;;;;;5076880;28;20549;-64
2021/08/02 12:03:11;;;;;;;5.20;1.98;;;31.40;27.70;;;;;;5076627;28;20080;-64
2021/08/02 12:05:39;;;;;;;7.40;2.47;;;31.40;28.50;;;;;;5022287;28;20073;-63
2021/08/02 12:08:18;;;;;;;6.25;2.33;;;31.30;28.50;;;;;;5068855;28;20202;-63
2021/08/02 12:11:01;;;;;;;14.02;2.67;;;31.30;28.90;;;;;;5076015;28;20530;-63
2021/08/02 12:13:39;;;;;;;11.25;2.80;;;31.30;29.40;;;;;;5076936;28;20533;-63
2021/08/02 12:16:06;;;;;;;13.55;2.95;;;31.30;29.10;;;;;;5071608;28;21837;-64
2021/08/02 12:18:33;;;;;;;14.15;3.08;;;31.30;29.10;;;;;;5071476;28;20081;-64
2021/08/02 12:21:24;;;;;;;16.00;3.28;;;31.30;29.20;;;;;;5077908;28;20102;-65
2021/08/02 12:24:14;;;;;;;17.65;3.45;;;31.20;29.40;;;;;;5080359;28;20077;-64
2021/08/02 12:26:55;;;;;;;15.85;4.18;;;31.10;30.70;;;;;;5076427;28;20077;-64
2021/08/02 12:29:27;;;;;;;26.30;4.53;;;31.10;30.50;;;;;;5077186;28;20116;-64
2021/08/02 12:31:57;;;;;;;27.50;4.28;;;31.10;30.60;;;;;;5075389;28;20172;-65
2021/08/02 12:34:24;;;;;;;16.60;4.75;;;31.10;30.80;;;;;;5075636;28;20065;-64
2021/08/02 12:36:56;;;;;;;27.17;4.95;;;31.10;31.50;;;;;;5073864;28;20081;-65
2021/08/02 12:39:29;;;;;;;26.25;5.70;;;31.00;32.10;;;;;;5076497;28;20080;-65
2021/08/02 12:41:56;;;;;;;34.88;5.50;;;30.90;32.20;;;;;;5074611;28;20093;-64
2021/08/02 12:44:23;;;;;;;40.25;6.53;;;30.90;33.00;;;;;;5076412;28;20140;-64
2021/08/02 12:46:49;;;;;;;35.03;6.70;;;30.80;33.50;;;;;;5073570;28;20076;-65
2021/08/02 12:49:16;;;;;;;35.17;7.18;;;30.80;33.80;;;;;;5078414;28;20151;-64
2021/08/02 12:51:42;;;;;;;32.10;7.15;;;30.80;34.10;;;;;;5076014;28;20426;-64